Time;durP1;ratioP1;P1;durP2;ratioP2;P2;SDS_P1;SDS_P2;PMS_P1;PMS_P2;Temp;Humidity;BMP_temperature;BMP_pressure;BME280_temperature;BME280_humidity;BME280_pressure;Samples;Min_cycle;Max_cycle;Signal;HPM_P1;HPM_P2
2023/02/08 00:02:13;;;;;;;;;98.80;87.40;;;;;3.81;51.66;101192.03;7744049;22;98878;-67
2023/02/08 00:05:17;;;;;;;;;104.00;91.50;;;;;3.12;51.48;101067.81;7743919;22;97045;-68
2023/02/08 00:08:20;;;;;;;;;103.60;94.60;;;;;3.95;51.65;101204.28;7745268;22;96513;-68
2023/02/08 00:11:23;;;;;;;;;98.67;85.00;;;;;3.95;51.23;101204.28;7745616;22;96466;-68
2023/02/08 00:21:58;;;;;;;;;98.00;88.00;;;;;3.99;51.38;101222.59;7748123;22;99070;-66
2023/02/08 00:47:19;;;;;;;;;96.80;83.00;;;;;3.99;51.45;101209.25;7723509;22;99004;-66
2023/02/08 01:31:38;;;;;;;;;95.00;83.00;;;;;4.21;50.83;101230.56;7708857;22;96548;-68
2023/02/08 01:34:42;;;;;;;;;95.50;81.00;;;;;4.26;50.52;101230.19;7706509;22;96237;-67
2023/02/08 01:37:46;;;;;;;;;92.80;77.60;;;;;4.29;50.39;101221.94;7705258;22;96308;-68
2023/02/08 01:40:49;;;;;;;;;89.80;78.40;;;;;4.27;50.60;101222.06;7731282;22;96575;-67
2023/02/08 01:44:03;;;;;;;;;90.00;80.60;;;;;4.25;50.66;101221.31;7732778;22;96216;-67
2023/02/08 05:37:36;;;;;;;;;63.00;49.40;;;;;4.00;55.15;101309.72;7748809;22;99948;-67
2023/02/08 05:40:39;;;;;;;;;59.20;46.00;;;;;3.88;55.26;101297.31;7732644;22;98814;-67
2023/02/08 08:47:36;;;;;;;;;56.00;43.40;;;;;5.99;49.38;101441.22;7740806;22;100500;-92
2023/02/08 08:50:41;;;;;;;;;49.40;39.40;;;;;6.18;49.02;101448.53;7699337;22;100681;-89
2023/02/08 08:54:17;;;;;;;;;49.00;37.00;;;;;6.02;49.48;101454.34;7704794;22;98897;-91
2023/02/08 09:00:59;;;;;;;;;53.20;42.40;;;;;4.33;49.94;101234.06;7750803;22;99091;-91
2023/02/08 09:04:05;;;;;;;;;53.80;41.80;;;;;4.45;49.99;101238.38;7708501;22;96941;-91
2023/02/08 09:07:10;;;;;;;;;52.00;41.00;;;;;4.85;50.44;101329.50;7710483;22;96260;-91
2023/02/08 09:10:13;;;;;;;;;50.00;39.00;;;;;5.60;50.44;101433.81;7708895;22;96337;-91
2023/02/08 09:13:20;;;;;;;;;50.00;40.67;;;;;5.73;50.03;101413.06;7709937;22;97096;-90
2023/02/08 09:16:25;;;;;;;;;48.20;40.00;;;;;6.24;49.93;101449.84;7707903;22;99034;-91
2023/02/08 09:19:30;;;;;;;;;48.00;38.00;;;;;6.56;48.84;101455.09;7707833;22;96448;-91
2023/02/08 09:22:34;;;;;;;;;49.00;37.80;;;;;6.65;48.41;101414.91;7710034;22;96312;-91
2023/02/08 09:25:38;;;;;;;;;46.20;37.00;;;;;7.41;47.20;101456.38;7711209;22;96292;-91
2023/02/08 09:28:42;;;;;;;;;49.25;38.25;;;;;7.20;46.86;101452.94;7712339;22;96898;-91
2023/02/08 09:31:46;;;;;;;;;52.67;41.00;;;;;6.72;47.00;101429.50;7713170;22;97263;-92
2023/02/08 09:34:51;;;;;;;;;39.80;33.20;;;;;8.75;45.50;101465.34;7712180;22;96484;-91
2023/02/08 09:41:55;;;;;;;;;35.00;32.00;;;;;10.31;39.48;101422.69;7731902;22;99395;-90
2023/02/08 09:52:29;;;;;;;;;35.00;31.00;;;;;16.32;29.46;101461.78;7758902;22;99117;-69
2023/02/08 09:55:37;;;;;;;;;36.00;32.00;;;;;18.93;25.54;101455.72;7715783;22;96883;-70
2023/02/08 09:58:43;;;;;;;;;37.80;32.40;;;;;20.28;21.96;101437.13;7739295;22;96724;-70
2023/02/08 10:01:50;;;;;;;;;33.40;29.80;;;;;21.68;20.38;101437.31;7735171;22;96397;-70
2023/02/08 10:05:01;;;;;;;;;38.20;31.80;;;;;22.90;20.17;101428.31;7707367;22;96378;-70
2023/02/08 10:08:11;;;;;;;;;34.25;31.00;;;;;22.04;19.79;101443.53;7709684;22;96518;-70
2023/02/08 10:11:29;;;;;;;;;32.50;29.50;;;;;22.41;19.60;101441.47;7709679;22;96770;-70
2023/02/08 10:14:57;;;;;;;;;34.80;30.80;;;;;20.17;21.05;101437.88;7709498;22;96334;-70
2023/02/08 10:18:27;;;;;;;;;31.20;28.40;;;;;18.15;23.66;101441.06;7736999;22;96377;-70
2023/02/08 10:21:48;;;;;;;;;32.00;29.00;;;;;15.94;25.95;101428.59;7736127;22;96914;-70
2023/02/08 10:25:20;;;;;;;;;36.00;29.80;;;;;14.65;27.95;101428.47;7708793;22;96438;-70
2023/02/08 10:28:38;;;;;;;;;37.50;32.00;;;;;13.92;29.48;101432.88;7708388;22;97082;-69
2023/02/08 10:32:15;;;;;;;;;38.00;32.60;;;;;13.05;30.86;101420.50;7707414;22;96614;-69
2023/02/08 10:35:26;;;;;;;;;30.00;27.00;;;;;12.78;30.72;101424.50;7686025;22;96261;-70
2023/02/08 10:38:32;;;;;;;;;33.50;30.00;;;;;13.18;31.01;101421.66;7733975;22;96932;-70
2023/02/08 10:41:51;;;;;;;;;34.20;30.40;;;;;13.52;29.49;101415.88;7680873;22;96373;-69
2023/02/08 10:45:04;;;;;;;;;29.40;27.00;;;;;15.90;27.46;101412.84;7708721;22;96695;-70
2023/02/08 10:48:41;;;;;;;;;29.80;27.00;;;;;18.36;23.47;101423.63;7710536;22;96778;-70
2023/02/08 10:51:46;;;;;;;;;25.00;23.60;;;;;19.54;21.82;101406.94;7710066;22;96496;-70
2023/02/08 10:54:49;;;;;;;;;20.60;19.00;;;;;19.68;20.97;101410.41;7737772;22;96184;-70
2023/02/08 10:57:58;;;;;;;;;21.00;20.00;;;;;19.82;20.83;101407.38;7709912;22;98494;-70
2023/02/08 11:01:02;;;;;;;;;19.75;18.00;;;;;19.82;20.69;101404.63;7737331;22;96977;-70
2023/02/08 11:04:09;;;;;;;;;21.00;19.50;;;;;18.42;21.28;101403.69;7737795;22;96341;-70
2023/02/08 11:07:20;;;;;;;;;24.40;20.00;;;;;17.34;22.74;101412.97;7711026;22;96763;-70
2023/02/08 11:10:25;;;;;;;;;19.80;16.20;;;;;15.32;24.68;101412.00;7737886;22;96438;-70
2023/02/08 11:13:36;;;;;;;;;21.00;17.80;;;;;13.74;25.65;101416.88;7737124;22;96244;-70
2023/02/08 11:16:40;;;;;;;;;20.40;16.80;;;;;12.20;28.12;101409.41;7710466;22;96431;-70
2023/02/08 11:19:45;;;;;;;;;21.00;19.40;;;;;11.97;28.99;101403.00;7710682;22;96601;-70
2023/02/08 11:22:48;;;;;;;;;24.33;21.00;;;;;11.54;30.09;101414.91;7710127;22;96944;-69
2023/02/08 11:25:52;;;;;;;;;29.60;27.00;;;;;11.01;31.51;101415.28;7737479;22;97153;-69
2023/02/08 11:29:02;;;;;;;;;25.25;22.25;;;;;10.20;32.66;101421.09;7737195;22;96269;-69
2023/02/08 11:32:15;;;;;;;;;24.40;23.40;;;;;10.40;32.94;101416.34;7709641;22;96771;-69
2023/02/08 11:35:21;;;;;;;;;23.60;21.60;;;;;10.33;32.76;101417.97;7737412;22;96207;-69
2023/02/08 11:38:27;;;;;;;;;22.50;21.00;;;;;10.25;32.97;101418.78;7738202;22;96840;-69
2023/02/08 11:41:30;;;;;;;;;23.00;22.00;;;;;11.05;32.21;101406.69;7685128;22;98298;-69
2023/02/08 11:44:37;;;;;;;;;20.00;19.25;;;;;12.74;29.85;101393.38;7710483;22;96719;-69
2023/02/08 11:47:41;;;;;;;;;19.00;19.00;;;;;13.29;27.90;101399.56;7710376;22;96588;-69
2023/02/08 11:50:44;;;;;;;;;15.00;15.00;;;;;13.63;27.95;101404.63;7737512;22;96363;-69
2023/02/08 11:53:48;;;;;;;;;18.25;17.25;;;;;13.85;26.63;101400.19;7737121;22;97278;-70
2023/02/08 11:57:02;;;;;;;;;16.00;14.60;;;;;14.51;26.60;101391.31;7738077;22;96428;-69
2023/02/08 12:00:19;;;;;;;;;15.60;15.40;;;;;15.35;25.64;101389.00;7738183;22;96227;-69
2023/02/08 12:03:29;;;;;;;;;18.50;17.00;;;;;15.85;25.07;101396.25;7710380;22;98314;-69
2023/02/08 12:06:59;;;;;;;;;18.00;16.00;;;;;16.26;23.70;101388.25;7711068;22;96255;-69
2023/02/08 12:10:34;;;;;;;;;16.20;14.20;;;;;16.23;24.05;101388.63;7738305;22;96487;-70
2023/02/08 12:13:50;;;;;;;;;14.00;13.75;;;;;16.74;22.91;101384.59;7733761;22;96479;-68
2023/02/08 12:17:20;;;;;;;;;15.00;13.80;;;;;18.22;22.10;101383.75;7748764;22;96724;-67
2023/02/08 12:20:37;;;;;;;;;16.75;14.75;;;;;18.89;21.61;101367.00;7752378;22;96322;-67
2023/02/08 12:23:50;;;;;;;;;15.75;14.75;;;;;19.06;19.78;101375.56;7749812;22;96905;-67
2023/02/08 12:27:06;;;;;;;;;15.00;13.50;;;;;18.65;20.00;101362.25;7719105;22;96154;-67
2023/02/08 12:30:21;;;;;;;;;16.40;15.00;;;;;19.09;49.17;101373.25;7745557;22;96428;-67
2023/02/08 12:33:41;;;;;;;;;15.00;14.40;;;;;17.43;21.04;101342.72;7745959;22;96194;-66
2023/02/08 12:44:01;;;;;;;;;14.50;14.00;;;;;17.42;20.65;101362.84;7742717;22;96478;-66
2023/02/08 12:47:23;;;;;;;;;19.60;16.40;;;;;17.20;21.35;101338.44;7711994;22;99029;-66
2023/02/08 12:50:38;;;;;;;;;14.40;13.40;;;;;17.43;21.79;101354.47;7712404;22;96422;-67
2023/02/08 12:53:46;;;;;;;;;17.00;15.00;;;;;16.18;22.07;101351.09;7740105;22;96127;-66
2023/02/08 12:56:51;;;;;;;;;15.50;15.00;;;;;14.28;23.88;101356.03;7712110;22;96287;-66
2023/02/08 13:00:07;;;;;;;;;17.00;17.00;;;;;14.46;24.29;101342.16;7740297;22;96277;-66
2023/02/08 13:03:25;;;;;;;;;18.00;18.00;;;;;14.79;24.25;101348.03;7711878;22;96376;-66
2023/02/08 13:06:37;;;;;;;;;19.00;18.00;;;;;13.80;24.50;101345.66;7738483;22;96618;-66
2023/02/08 13:09:45;;;;;;;;;20.20;18.20;;;;;13.82;25.05;101328.19;7712453;22;96854;-66
2023/02/08 13:12:54;;;;;;;;;21.00;17.00;;;;;13.52;25.07;101341.84;7712284;22;96614;-66
2023/02/08 13:16:02;;;;;;;;;19.60;18.60;;;;;13.56;25.57;101333.16;7740956;22;96249;-66
2023/02/08 13:19:21;;;;;;;;;19.00;18.00;;;;;13.33;26.01;101329.63;7711453;22;96622;-67
2023/02/08 13:22:27;;;;;;;;;18.00;16.20;;;;;13.15;26.59;101329.03;7711011;22;96635;-66
2023/02/08 13:25:34;;;;;;;;;17.20;16.80;;;;;12.97;26.55;101332.00;7710529;22;98861;-66
2023/02/08 13:28:42;;;;;;;;;20.60;19.00;;;;;12.36;28.64;101330.09;7738730;22;96228;-66
2023/02/08 13:31:54;;;;;;;;;25.40;23.00;;;;;12.69;27.97;101323.53;7738836;22;97113;-66
2023/02/08 13:35:02;;;;;;;;;28.60;27.00;;;;;13.35;29.11;101322.97;7712789;22;96484;-66
2023/02/08 13:38:25;;;;;;;;;26.75;24.75;;;;;13.98;28.65;101323.63;7712525;22;96685;-66
2023/02/08 13:41:30;;;;;;;;;25.40;24.40;;;;;14.31;28.31;101317.69;7711658;22;97108;-65
2023/02/08 13:44:37;;;;;;;;;32.00;28.00;;;;;14.52;27.88;101321.53;7738216;22;97036;-66
2023/02/08 13:47:46;;;;;;;;;27.40;25.00;;;;;14.57;27.65;101324.53;7737850;22;96441;-66
2023/02/08 13:50:50;;;;;;;;;23.00;22.00;;;;;14.37;27.24;101324.25;7708393;22;96507;-66
2023/02/08 13:54:12;;;;;;;;;27.20;25.20;;;;;14.29;27.61;101327.88;7708790;22;96187;-66
2023/02/08 13:57:51;;;;;;;;;26.00;24.00;;;;;14.31;27.87;101325.00;7708288;22;96589;-66
2023/02/08 14:01:06;;;;;;;;;27.75;22.00;;;;;13.48;27.59;101327.81;7709478;22;98646;-66
2023/02/08 14:04:32;;;;;;;;;24.00;23.00;;;;;12.72;28.63;101331.28;7733773;22;96066;-66
2023/02/08 14:07:42;;;;;;;;;24.20;23.80;;;;;12.27;29.85;101331.09;7734185;22;96204;-65
2023/02/08 14:11:00;;;;;;;;;22.20;21.20;;;;;12.25;30.25;101322.34;7735866;22;96309;-65
2023/02/08 14:14:12;;;;;;;;;24.20;22.20;;;;;12.25;29.90;101319.63;7736577;22;96323;-66
2023/02/08 14:17:22;;;;;;;;;27.40;23.40;;;;;11.99;30.29;101325.25;7735306;22;96388;-66
2023/02/08 14:20:30;;;;;;;;;26.00;24.40;;;;;11.67;30.61;101334.22;7708616;22;97199;-66
2023/02/08 14:23:38;;;;;;;;;22.00;21.50;;;;;11.02;31.53;101330.59;7709462;22;97159;-66
2023/02/08 14:26:45;;;;;;;;;24.00;22.50;;;;;11.08;31.60;101329.94;7736735;22;96577;-65
2023/02/08 14:29:57;;;;;;;;;27.75;25.00;;;;;11.13;31.73;101328.44;7708579;22;96983;-65
2023/02/08 14:33:16;;;;;;;;;25.00;21.75;;;;;11.20;31.88;101323.19;7711063;22;96521;-65
2023/02/08 14:36:27;;;;;;;;;26.20;23.40;;;;;11.32;31.79;101323.75;7711290;22;97277;-64
2023/02/08 14:39:33;;;;;;;;;25.00;23.25;;;;;11.09;32.05;101313.56;7710683;22;96971;-65
2023/02/08 14:42:56;;;;;;;;;22.60;21.00;;;;;11.03;32.12;101316.94;7712022;22;96872;-64
2023/02/08 14:46:33;;;;;;;;;27.50;23.50;;;;;10.82;32.38;101319.25;7711423;22;96209;-64
2023/02/08 14:49:40;;;;;;;;;26.60;23.80;;;;;10.61;32.83;101321.53;7739046;22;96305;-64
2023/02/08 14:52:51;;;;;;;;;24.40;22.00;;;;;10.28;33.50;101324.09;7711847;22;97272;-65
2023/02/08 14:55:59;;;;;;;;;23.20;19.20;;;;;9.90;33.70;101329.88;7711994;22;96614;-65
2023/02/08 14:59:11;;;;;;;;;21.80;21.00;;;;;9.55;34.19;101330.78;7737620;22;96478;-64
2023/02/08 15:02:21;;;;;;;;;23.60;22.00;;;;;9.27;34.89;101331.91;7736630;22;96221;-64
2023/02/08 15:05:27;;;;;;;;;22.40;19.00;;;;;9.04;35.38;101337.72;7736905;22;96297;-65
2023/02/08 15:08:30;;;;;;;;;24.00;21.00;;;;;8.83;35.81;101333.63;7709329;22;96596;-65
2023/02/08 15:11:35;;;;;;;;;21.00;18.20;;;;;8.70;35.79;101334.81;7709375;22;98288;-64
2023/02/08 15:14:42;;;;;;;;;25.20;21.20;;;;;8.45;36.29;101335.53;7709966;22;96746;-64
2023/02/08 15:17:49;;;;;;;;;22.60;21.00;;;;;8.23;36.74;101323.25;7737042;22;96208;-65
2023/02/08 15:21:02;;;;;;;;;24.00;23.00;;;;;7.99;36.97;101322.06;7736225;22;96976;-65
2023/02/08 15:24:14;;;;;;;;;25.80;22.80;;;;;7.79;37.30;101324.81;7709214;22;98440;-65
2023/02/08 15:27:21;;;;;;;;;24.00;21.50;;;;;7.56;37.62;101327.97;7706433;22;98670;-65
2023/02/08 15:30:29;;;;;;;;;23.00;21.00;;;;;7.45;38.01;101315.53;7709097;22;97028;-64
2023/02/08 15:33:33;;;;;;;;;20.40;19.60;;;;;7.24;38.30;101323.72;7736500;22;96552;-64
2023/02/08 15:36:38;;;;;;;;;24.00;20.80;;;;;6.97;38.25;101305.66;7737153;22;96331;-65
2023/02/08 15:39:42;;;;;;;;;20.00;17.60;;;;;6.86;38.34;101323.69;7708972;22;96350;-65
2023/02/08 15:42:46;;;;;;;;;26.00;24.00;;;;;6.69;38.57;101327.91;7708565;22;96942;-64
2023/02/08 15:45:58;;;;;;;;;14.00;14.00;;;;;6.57;38.55;101322.78;7710290;22;96293;-64
2023/02/08 15:49:01;;;;;;;;;18.00;17.00;;;;;6.46;38.58;101324.56;7737224;22;96455;-65
2023/02/08 15:52:07;;;;;;;;;22.60;21.00;;;;;6.34;38.76;101331.03;7735790;22;96725;-65
2023/02/08 15:55:16;;;;;;;;;26.00;23.00;;;;;6.19;38.97;101323.47;7735693;22;96836;-64
2023/02/08 15:58:28;;;;;;;;;20.40;18.80;;;;;6.07;39.33;101328.91;7736044;22;96263;-64
2023/02/08 16:01:33;;;;;;;;;20.40;18.40;;;;;5.98;39.30;101321.69;7736074;22;96299;-63
2023/02/08 16:04:43;;;;;;;;;22.00;21.00;;;;;5.87;39.33;101329.78;7736374;22;96818;-64
2023/02/08 16:07:47;;;;;;;;;21.40;20.40;;;;;5.80;39.58;101325.94;7736802;22;96448;-64
2023/02/08 16:10:54;;;;;;;;;23.00;22.00;;;;;5.74;39.78;101344.34;7708825;22;96582;-65
2023/02/08 16:14:01;;;;;;;;;24.00;21.60;;;;;5.68;40.05;101329.63;7735860;22;96344;-64
2023/02/08 16:17:21;;;;;;;;;23.00;23.00;;;;;5.62;40.11;101336.34;7735699;22;96342;-62
2023/02/08 16:20:27;;;;;;;;;20.80;18.80;;;;;5.48;40.52;101322.44;7737020;22;96276;-63
2023/02/08 16:23:38;;;;;;;;;22.20;19.20;;;;;5.38;40.79;101330.41;7736323;22;96479;-63
2023/02/08 16:26:45;;;;;;;;;23.00;20.00;;;;;5.32;41.14;101325.59;7684217;22;98516;-63
2023/02/08 16:29:48;;;;;;;;;21.00;20.00;;;;;5.24;41.63;101331.56;7736890;22;96673;-64
2023/02/08 16:32:53;;;;;;;;;19.60;18.00;;;;;5.15;41.84;101331.47;7736650;22;96166;-63
2023/02/08 16:36:00;;;;;;;;;22.80;20.20;;;;;5.20;41.63;101345.31;7708561;22;97283;-63
2023/02/08 16:39:41;;;;;;;;;23.00;22.00;;;;;5.10;42.15;101339.03;7709282;22;96653;-63
2023/02/08 16:42:44;;;;;;;;;27.00;24.00;;;;;5.04;42.22;101344.88;7708458;22;97114;-63
2023/02/08 16:46:21;;;;;;;;;22.00;21.00;;;;;4.98;42.20;101340.06;7737243;22;96188;-63
2023/02/08 16:49:26;;;;;;;;;29.50;25.00;;;;;4.93;42.72;101335.09;7736687;22;96169;-63
2023/02/08 16:52:29;;;;;;;;;30.00;27.00;;;;;4.87;42.48;101322.22;7708177;22;96691;-62
2023/02/08 16:55:37;;;;;;;;;26.60;26.20;;;;;4.90;42.68;101329.97;7707587;22;96324;-62
2023/02/08 16:58:40;;;;;;;;;32.80;30.00;;;;;4.89;43.00;101324.78;7734733;22;97131;-63
2023/02/08 17:01:45;;;;;;;;;28.67;26.00;;;;;4.82;43.16;101329.78;7735544;22;96393;-64
2023/02/08 17:04:53;;;;;;;;;35.60;31.40;;;;;4.82;43.30;101331.59;7735075;22;96482;-64
2023/02/08 17:07:58;;;;;;;;;33.40;30.00;;;;;4.85;43.03;101326.00;7706870;22;99406;-63
2023/02/08 17:11:01;;;;;;;;;28.80;27.20;;;;;4.80;43.18;101326.38;7706832;22;96596;-64
2023/02/08 17:14:05;;;;;;;;;32.80;29.80;;;;;4.72;43.50;101332.34;7733317;22;96468;-64
2023/02/08 17:17:10;;;;;;;;;28.00;26.00;;;;;4.66;43.46;101329.31;7707102;22;98244;-64
2023/02/08 17:20:20;;;;;;;;;34.00;30.00;;;;;4.58;43.87;101326.44;7734873;22;96250;-63
2023/02/08 17:23:24;;;;;;;;;30.60;26.60;;;;;4.58;43.70;101327.28;7735317;22;96216;-63
2023/02/08 17:26:31;;;;;;;;;29.00;29.00;;;;;4.50;44.07;101335.03;7682043;22;99355;-64
2023/02/08 17:29:35;;;;;;;;;28.00;25.60;;;;;4.38;44.16;101321.84;7683101;22;97532;-63
2023/02/08 17:32:39;;;;;;;;;31.20;27.00;;;;;4.44;44.34;101338.22;7709641;22;96711;-64
2023/02/08 17:35:45;;;;;;;;;30.80;28.20;;;;;4.43;44.34;101339.19;7736532;22;96308;-63
2023/02/08 17:38:48;;;;;;;;;34.60;30.60;;;;;4.44;44.63;101337.38;7736052;22;96372;-63
2023/02/08 17:41:52;;;;;;;;;33.20;28.00;;;;;4.48;44.50;101337.00;7736174;22;96223;-64
2023/02/08 17:44:55;;;;;;;;;35.00;30.40;;;;;4.43;44.51;101341.00;7708701;22;97175;-63
2023/02/08 17:47:59;;;;;;;;;31.00;29.00;;;;;4.34;44.59;101335.44;7736402;22;96628;-63
2023/02/08 17:51:09;;;;;;;;;37.00;32.00;;;;;4.27;44.94;101336.03;7735112;22;96852;-63
2023/02/08 17:54:13;;;;;;;;;38.00;33.00;;;;;4.16;45.43;101328.00;7710507;22;96443;-63
2023/02/08 17:57:18;;;;;;;;;42.20;35.00;;;;;4.03;44.90;101327.28;7710074;22;96813;-62
2023/02/08 18:00:26;;;;;;;;;36.80;32.00;;;;;3.41;45.21;101235.19;7737718;22;97091;-63
2023/02/08 18:03:30;;;;;;;;;37.20;33.20;;;;;3.98;45.30;101324.13;7684822;22;96650;-63
2023/02/08 18:06:35;;;;;;;;;38.00;33.00;;;;;3.92;45.17;101322.78;7711212;22;98414;-63
2023/02/08 18:09:39;;;;;;;;;39.60;34.60;;;;;3.89;45.09;101336.38;7709613;22;97564;-62
2023/02/08 18:12:42;;;;;;;;;47.00;38.00;;;;;3.87;44.99;101327.63;7710726;22;96218;-62
2023/02/08 18:15:46;;;;;;;;;39.80;34.80;;;;;3.91;44.87;101323.75;7736695;22;96188;-62
2023/02/08 18:18:51;;;;;;;;;47.00;37.00;;;;;3.88;45.11;101329.34;7737660;22;96273;-62
2023/02/08 18:21:59;;;;;;;;;49.80;40.20;;;;;3.85;44.84;101329.59;7738271;22;96285;-63
2023/02/08 18:25:03;;;;;;;;;52.20;42.00;;;;;3.83;44.83;101323.50;7737727;22;96164;-63
2023/02/08 18:28:06;;;;;;;;;51.60;42.00;;;;;3.81;44.68;101322.78;7736217;22;96181;-63
2023/02/08 18:31:13;;;;;;;;;50.80;41.00;;;;;3.78;44.75;101323.88;7735613;22;96424;-64
2023/02/08 18:34:17;;;;;;;;;48.20;39.20;;;;;3.71;44.63;101327.16;7737336;22;96980;-62
2023/02/08 18:37:22;;;;;;;;;56.60;43.60;;;;;3.67;44.78;101318.50;7735398;22;96263;-63
2023/02/08 18:40:25;;;;;;;;;50.40;41.40;;;;;3.66;44.55;101329.31;7735185;22;96451;-63
2023/02/08 18:43:29;;;;;;;;;53.80;43.40;;;;;3.60;44.83;101332.44;7708741;22;96484;-64
2023/02/08 18:46:32;;;;;;;;;56.60;44.60;;;;;3.66;44.38;101330.16;7736758;22;96929;-62
2023/02/08 18:49:39;;;;;;;;;57.00;45.00;;;;;3.64;44.72;101317.91;7709682;22;98083;-62
2023/02/08 18:52:44;;;;;;;;;51.60;43.00;;;;;3.60;44.68;101319.97;7709412;22;95998;-62
2023/02/08 18:55:52;;;;;;;;;52.50;42.00;;;;;3.45;44.96;101311.31;7708368;22;96923;-62
2023/02/08 18:58:59;;;;;;;;;53.40;43.80;;;;;3.48;45.12;101326.22;7708772;22;97160;-63
2023/02/08 19:02:02;;;;;;;;;50.50;42.00;;;;;3.22;45.17;101292.69;7707720;22;98298;-64
2023/02/08 19:05:06;;;;;;;;;55.60;43.00;;;;;3.37;45.06;101328.88;7709366;22;96399;-63
2023/02/08 19:08:12;;;;;;;;;53.40;44.00;;;;;3.36;45.02;101324.50;7736702;22;96387;-63
2023/02/08 19:11:17;;;;;;;;;53.40;44.00;;;;;3.30;45.17;101323.13;7710081;22;97389;-63
2023/02/08 19:14:20;;;;;;;;;53.00;42.40;;;;;3.42;44.79;101329.38;7709645;22;97544;-62
2023/02/08 19:17:26;;;;;;;;;52.40;42.00;;;;;3.36;45.08;101333.34;7736466;22;96498;-62
2023/02/08 19:20:29;;;;;;;;;53.00;41.60;;;;;3.24;45.41;101322.75;7740992;22;96169;-67
2023/02/08 19:23:34;;;;;;;;;50.00;40.00;;;;;3.18;45.54;101324.06;7708413;22;96408;-67
2023/02/08 19:26:39;;;;;;;;;52.60;43.00;;;;;3.15;45.70;101331.44;7736507;22;96759;-65
2023/02/08 19:29:43;;;;;;;;;56.00;44.00;;;;;3.15;46.12;101315.44;7735993;22;96173;-66
2023/02/08 19:32:46;;;;;;;;;57.00;45.40;;;;;3.17;46.50;101311.72;7736253;22;96353;-66
2023/02/08 19:35:50;;;;;;;;;56.00;44.80;;;;;3.17;47.04;101319.72;7709465;22;96535;-66
2023/02/08 19:38:56;;;;;;;;;60.00;47.67;;;;;3.19;46.87;101320.44;7709325;22;96593;-65
2023/02/08 19:42:00;;;;;;;;;61.00;47.00;;;;;3.18;47.08;101320.53;7736725;22;96192;-65
2023/02/08 19:45:03;;;;;;;;;57.60;46.00;;;;;3.07;48.06;101316.03;7708379;22;96585;-66
2023/02/08 19:48:07;;;;;;;;;62.00;48.40;;;;;3.06;48.31;101319.66;7735991;22;96256;-66
2023/02/08 19:51:10;;;;;;;;;62.00;49.00;;;;;3.07;47.92;101320.50;7735013;22;96186;-66
2023/02/08 19:54:17;;;;;;;;;66.00;50.40;;;;;3.00;48.30;101315.63;7709049;22;96479;-67
2023/02/08 19:57:20;;;;;;;;;65.25;51.00;;;;;2.87;48.04;101296.19;7681272;22;96604;-66
2023/02/08 20:00:24;;;;;;;;;63.75;49.75;;;;;2.93;47.59;101311.69;7682568;22;97223;-66
2023/02/08 20:03:27;;;;;;;;;68.60;53.00;;;;;2.93;48.09;101317.03;7709051;22;96526;-66
2023/02/08 20:06:34;;;;;;;;;66.00;51.00;;;;;2.82;47.91;101289.50;7734833;22;96236;-66
2023/02/08 20:09:39;;;;;;;;;64.00;50.25;;;;;2.82;48.09;101305.50;7735681;22;96443;-66
2023/02/08 20:12:42;;;;;;;;;69.60;54.60;;;;;2.75;48.60;101299.75;7680316;22;96272;-65
2023/02/08 20:15:46;;;;;;;;;65.80;51.80;;;;;2.69;48.04;101300.19;7706860;22;96364;-66
2023/02/08 20:18:50;;;;;;;;;68.00;52.00;;;;;2.68;48.33;101298.50;7706712;22;96568;-66
2023/02/08 20:21:53;;;;;;;;;72.40;56.60;;;;;2.64;48.44;101289.03;7735294;22;96455;-66
2023/02/08 20:24:58;;;;;;;;;75.00;61.00;;;;;2.67;48.43;101295.97;7682746;22;98545;-65
2023/02/08 20:28:02;;;;;;;;;71.75;58.50;;;;;2.59;48.57;101281.38;7735665;22;96348;-65
2023/02/08 20:31:07;;;;;;;;;72.00;57.00;;;;;2.55;48.68;101282.56;7735915;22;97019;-65
2023/02/08 20:34:13;;;;;;;;;70.75;56.00;;;;;2.47;48.83;101279.63;7683086;22;96573;-65
2023/02/08 20:37:19;;;;;;;;;70.20;55.00;;;;;2.40;48.78;101273.03;7736716;22;96531;-66
2023/02/08 20:40:24;;;;;;;;;71.00;57.00;;;;;2.33;48.61;101265.63;7735507;22;96201;-66
2023/02/08 20:43:28;;;;;;;;;71.60;55.60;;;;;2.35;48.88;101271.66;7735148;22;96358;-66
2023/02/08 20:46:34;;;;;;;;;73.00;61.00;;;;;2.34;48.39;101265.50;7735503;22;96329;-66
2023/02/08 20:49:38;;;;;;;;;74.40;60.00;;;;;2.32;48.55;101259.44;7706560;22;96612;-67
2023/02/08 20:52:43;;;;;;;;;70.60;57.00;;;;;2.33;48.39;101260.28;7734785;22;96784;-66
2023/02/08 20:55:48;;;;;;;;;66.40;50.40;;;;;2.21;48.06;101264.66;7735637;22;96731;-66
2023/02/08 20:58:52;;;;;;;;;65.00;50.60;;;;;2.26;47.80;101259.00;7736443;22;96218;-66
2023/02/08 21:01:55;;;;;;;;;64.80;50.00;;;;;2.20;47.86;101252.31;7734899;22;96393;-67
2023/02/08 21:04:59;;;;;;;;;64.50;51.00;;;;;2.25;47.60;101257.34;7734913;22;96189;-66
2023/02/08 21:08:03;;;;;;;;;67.40;53.00;;;;;2.24;47.82;101259.16;7707469;22;96434;-67
2023/02/08 21:11:08;;;;;;;;;64.40;51.00;;;;;2.23;47.80;101264.56;7735342;22;96683;-66
2023/02/08 21:14:17;;;;;;;;;66.00;50.80;;;;;2.21;47.45;101266.47;7681270;22;96595;-67
2023/02/08 21:17:21;;;;;;;;;63.80;49.60;;;;;2.22;47.39;101273.50;7707202;22;96648;-67
2023/02/08 21:20:24;;;;;;;;;65.00;51.00;;;;;2.17;47.43;101261.38;7706636;22;96569;-67
2023/02/08 21:23:28;;;;;;;;;71.50;56.25;;;;;2.16;47.88;101259.69;7705763;22;96691;-66
2023/02/08 21:26:32;;;;;;;;;72.00;59.00;;;;;2.20;47.96;101262.16;7733293;22;96171;-65
2023/02/08 21:29:36;;;;;;;;;77.40;67.80;;;;;2.20;48.66;101254.16;7734690;22;96264;-67
2023/02/08 21:32:42;;;;;;;;;75.80;62.20;;;;;2.17;48.54;101250.75;7707175;22;96592;-67
2023/02/08 21:35:46;;;;;;;;;74.60;63.80;;;;;2.09;48.14;101250.47;7706368;22;98230;-67
2023/02/08 21:38:50;;;;;;;;;74.00;61.00;;;;;2.01;48.02;101247.47;7734834;22;96657;-67
2023/02/08 21:41:55;;;;;;;;;76.60;64.00;;;;;1.94;48.45;101248.03;7733195;22;96434;-67
2023/02/08 21:44:58;;;;;;;;;75.00;66.00;;;;;1.84;48.54;101231.88;7734466;22;96503;-67
2023/02/08 21:48:02;;;;;;;;;78.20;71.20;;;;;1.83;48.78;101238.16;7705442;22;98444;-67
2023/02/08 21:54:44;;;;;;;;;77.75;70.25;;;;;1.70;48.23;101245.31;7733947;22;96464;-68
2023/02/08 21:57:50;;;;;;;;;77.00;66.00;;;;;1.60;48.44;101242.44;7707918;22;96377;-66
2023/02/08 22:00:53;;;;;;;;;78.00;69.00;;;;;1.54;48.33;101240.19;7707308;22;96240;-66
2023/02/08 22:03:56;;;;;;;;;76.00;66.00;;;;;1.49;48.28;101239.66;7735884;22;96430;-66
2023/02/08 22:07:00;;;;;;;;;77.40;69.80;;;;;1.43;48.81;101236.56;7735261;22;96336;-66
2023/02/08 22:10:07;;;;;;;;;81.25;75.25;;;;;1.39;49.15;101225.31;7734481;22;96169;-66
2023/02/08 22:13:11;;;;;;;;;88.75;76.00;;;;;1.41;49.45;101217.25;7734812;22;96395;-66
2023/02/08 22:16:15;;;;;;;;;85.20;74.60;;;;;1.36;49.27;101214.06;7734571;22;96217;-65
2023/02/08 22:19:20;;;;;;;;;89.80;78.20;;;;;1.36;49.61;101217.56;7736080;22;96341;-66
2023/02/08 22:22:24;;;;;;;;;82.60;74.00;;;;;1.34;49.39;101216.81;7733859;22;96296;-66
2023/02/08 22:25:27;;;;;;;;;85.60;73.40;;;;;1.16;49.56;101184.38;7732531;22;96317;-66
2023/02/08 22:28:33;;;;;;;;;81.40;71.00;;;;;1.24;49.47;101211.28;7733091;22;96361;-67
2023/02/08 22:31:36;;;;;;;;;85.40;73.00;;;;;1.12;49.66;101204.16;7705764;22;96283;-66
2023/02/08 22:34:40;;;;;;;;;83.20;72.00;;;;;1.16;49.87;101215.41;7708161;22;96392;-66
2023/02/08 22:37:43;;;;;;;;;79.00;71.50;;;;;1.03;49.87;101201.25;7682277;22;98263;-66
2023/02/08 22:40:47;;;;;;;;;83.40;75.40;;;;;1.03;49.81;101217.19;7736959;22;96546;-66
2023/02/08 22:43:53;;;;;;;;;84.20;73.00;;;;;1.04;49.91;101219.75;7736334;22;96936;-66
2023/02/08 22:46:57;;;;;;;;;79.40;71.40;;;;;0.99;49.53;101218.34;7709412;22;96328;-66
2023/02/08 22:50:00;;;;;;;;;80.00;72.60;;;;;0.94;49.13;101215.16;7736052;22;96396;-66
2023/02/08 22:53:03;;;;;;;;;82.50;72.75;;;;;0.81;49.26;101191.25;7709355;22;96307;-66